Giewont — C6YE4 — position and weather

sailwx.info

Track history (hours):
 
Tides and Currents Weather Stations Pressure Air Temp Water Temp Dewpoint Dewpoint Depression Visibility Wind Speed Wind Dir Waves Ship Positions

Giewont

Last reported at 2015-Jun-28 16:25 UTC. Time now 2015-Jul-06 09:14 UTC.
Position N 22°17' E 120°09'.

Length 229 m; draft 8.9 m.

Type: Cargo ship. MMSI: 311029800.

Date/timePositionNaut miles runAvg speedWind from/ knotsBaromVisibWave heightAir tempDewpointWater temp
2015-Jun-28 16:25N 22°17' E 120°09'1113.2
2015-Jun-28 15:33N 22°28' E 120°12'9 7.8
2015-Jun-28 14:27N 22°33' E 120°20'2 0.1
2015-Jun-26 23:33N 22°33' E 120°17'3 2.4
2015-Jun-26 22:23N 22°31' E 120°15'0 0.0
2015-Jun-26 21:23N 22°31' E 120°15'0 0.0
2015-Jun-26 20:29N 22°31' E 120°15'0 0.0
2015-Jun-26 19:29N 22°31' E 120°15'0 0.0
2015-Jun-26 18:29N 22°31' E 120°15'0 0.0
2015-Jun-26 17:11N 22°31' E 120°15'0 0.0
2015-Jun-26 16:23N 22°31' E 120°15'0 0.1
2015-Jun-26 15:29N 22°31' E 120°15'0 0.1
2015-Jun-26 14:29N 22°31' E 120°15'0 0.1
2015-Jun-26 13:28N 22°31' E 120°15'4 4.3
2015-Jun-26 12:33N 22°33' E 120°11'9 9.3
2015-Jun-26 11:33N 22°41' E 120°06'1413.1
2015-Jun-26 10:31N 22°51' E 119°56'  
Track history (hours):
 
Tides and Currents Weather Stations Pressure Air Temp Water Temp Dewpoint Dewpoint Depression Visibility Wind Speed Wind Dir Waves Ship Positions

Giewont

Last reported at 2015-Jun-28 16:25 UTC. Time now 2015-Jul-06 09:14 UTC.
Position N 22°17' E 120°09'.

Length 229 m; draft 8.9 m.

Type: Cargo ship. MMSI: 311029800.

Date/timePositionNaut miles runAvg speedWind from/ knotsBaromVisibWave heightAir tempDewpointWater temp
2015-Jun-28 16:25N 22°17' E 120°09'1113.2
2015-Jun-28 15:33N 22°28' E 120°12'9 7.8
2015-Jun-28 14:27N 22°33' E 120°20'2 0.1
2015-Jun-26 23:33N 22°33' E 120°17'3 2.4
2015-Jun-26 22:23N 22°31' E 120°15'0 0.0
2015-Jun-26 21:23N 22°31' E 120°15'0 0.0
2015-Jun-26 20:29N 22°31' E 120°15'0 0.0
2015-Jun-26 19:29N 22°31' E 120°15'0 0.0
2015-Jun-26 18:29N 22°31' E 120°15'0 0.0
2015-Jun-26 17:11N 22°31' E 120°15'0 0.0
2015-Jun-26 16:23N 22°31' E 120°15'0 0.1
2015-Jun-26 15:29N 22°31' E 120°15'0 0.1
2015-Jun-26 14:29N 22°31' E 120°15'0 0.1
2015-Jun-26 13:28N 22°31' E 120°15'4 4.3
2015-Jun-26 12:33N 22°33' E 120°11'9 9.3
2015-Jun-26 11:33N 22°41' E 120°06'1413.1
2015-Jun-26 10:31N 22°51' E 119°56'  

Dump ship's entire track history